Main page
METAR-TAF:

METAR-TAF

Airports :

Herat, Afghanistan

Herat International Airport

latitude: 34-13N, longitude: 062-13E, elevation: 964 m

Current weather observation

The report was made 2 hours and 21 minutes ago, at 16:55 UTC
Wind 2 kt from the West
Temperature 15°C
Humidity 27%
Pressure 1018 hPa
Visibility 10 km or more
no clouds below 1500 m and no cumulonimbus

METAR: OAHR 211655Z 27002KT CAVOK 15/M04 Q1018 RMK BLU

Time: 23:46 (19:16 UTC)

Forecast

The report was made 2 hours and 16 minutes ago, at 17:00 UTC
Forecast valid from 21 at 18 UTC to 22 at 18 UTC
Wind 3 kt from variable directions
Visibility 10 km or more
no clouds below 1500 m and no cumulonimbus
Becoming
from 22 at 06 UTC to 22 at 08 UTC
Wind 6 kt from the West/Northwest

TAF: OAHR 211700Z 2118/2218 VRB03KT CAVOK BECMG 2206/2208 29006KT

Weather observations and forecasts of more than 4000 airports (METAR and TAF reports).

The available stations are represented by yellow and red dots on the map.

Hover mouse over dot to see the name of the station.

Then click to see weather observations and forecasts.

To change the map : click on the green buttons with a black cross to zoom in, on the green button with a dash to zoom out, or on the green arrows for adjacent maps.


METAR-TAF: